sensor_id;sensor_type;location;lat;lon;timestamp;temperature;humidity
30250;DHT22;17064;47.974;13.826;2023-07-28T00:04:26;15.60;99.90
30250;DHT22;17064;47.974;13.826;2023-07-28T00:09:27;15.50;99.90
30250;DHT22;17064;47.974;13.826;2023-07-28T00:14:28;15.50;99.90
30250;DHT22;17064;47.974;13.826;2023-07-28T00:19:29;15.40;99.90
30250;DHT22;17064;47.974;13.826;2023-07-28T00:24:29;15.40;99.90
30250;DHT22;17064;47.974;13.826;2023-07-28T00:29:30;15.40;99.90
30250;DHT22;17064;47.974;13.826;2023-07-28T00:34:31;15.30;99.90
30250;DHT22;17064;47.974;13.826;2023-07-28T00:39:31;15.30;99.90
30250;DHT22;17064;47.974;13.826;2023-07-28T00:44:32;15.20;99.90
30250;DHT22;17064;47.974;13.826;2023-07-28T00:49:32;15.20;99.90
30250;DHT22;17064;47.974;13.826;2023-07-28T00:54:34;15.20;99.90
30250;DHT22;17064;47.974;13.826;2023-07-28T00:59:35;15.30;99.90
30250;DHT22;17064;47.974;13.826;2023-07-28T01:04:36;15.40;99.90
30250;DHT22;17064;47.974;13.826;2023-07-28T01:09:50;15.50;99.90
30250;DHT22;17064;47.974;13.826;2023-07-28T01:14:53;15.40;99.90
30250;DHT22;17064;47.974;13.826;2023-07-28T01:19:53;15.40;99.90
30250;DHT22;17064;47.974;13.826;2023-07-28T01:25:18;15.30;99.90
30250;DHT22;17064;47.974;13.826;2023-07-28T01:30:20;15.20;99.90
30250;DHT22;17064;47.974;13.826;2023-07-28T01:35:22;15.10;99.90
30250;DHT22;17064;47.974;13.826;2023-07-28T01:40:22;15.00;99.90
30250;DHT22;17064;47.974;13.826;2023-07-28T01:45:23;14.80;99.90
30250;DHT22;17064;47.974;13.826;2023-07-28T01:50:24;14.80;99.90
30250;DHT22;17064;47.974;13.826;2023-07-28T01:55:24;14.70;99.90
30250;DHT22;17064;47.974;13.826;2023-07-28T02:00:26;14.60;99.90
30250;DHT22;17064;47.974;13.826;2023-07-28T02:05:27;14.60;99.90
30250;DHT22;17064;47.974;13.826;2023-07-28T02:10:30;14.50;99.90
30250;DHT22;17064;47.974;13.826;2023-07-28T02:15:30;14.40;99.90
30250;DHT22;17064;47.974;13.826;2023-07-28T02:20:31;14.40;99.90
30250;DHT22;17064;47.974;13.826;2023-07-28T02:25:33;14.30;99.90
30250;DHT22;17064;47.974;13.826;2023-07-28T02:30:34;14.30;99.90
30250;DHT22;17064;47.974;13.826;2023-07-28T02:35:35;14.20;99.90
30250;DHT22;17064;47.974;13.826;2023-07-28T02:40:36;14.20;99.90
30250;DHT22;17064;47.974;13.826;2023-07-28T02:45:37;14.20;99.90
30250;DHT22;17064;47.974;13.826;2023-07-28T02:50:38;14.20;99.90
30250;DHT22;17064;47.974;13.826;2023-07-28T02:55:43;14.20;99.90
30250;DHT22;17064;47.974;13.826;2023-07-28T03:00:44;14.20;99.90
30250;DHT22;17064;47.974;13.826;2023-07-28T03:05:47;14.20;99.90
30250;DHT22;17064;47.974;13.826;2023-07-28T03:10:56;14.20;99.90
30250;DHT22;17064;47.974;13.826;2023-07-28T03:15:57;14.10;99.90
30250;DHT22;17064;47.974;13.826;2023-07-28T03:20:58;14.10;99.90
30250;DHT22;17064;47.974;13.826;2023-07-28T03:25:58;14.10;99.90
30250;DHT22;17064;47.974;13.826;2023-07-28T03:30:59;14.10;99.90
30250;DHT22;17064;47.974;13.826;2023-07-28T03:36:00;14.10;99.90
30250;DHT22;17064;47.974;13.826;2023-07-28T03:41:01;14.20;99.90
30250;DHT22;17064;47.974;13.826;2023-07-28T03:46:01;14.20;99.90
30250;DHT22;17064;47.974;13.826;2023-07-28T03:51:02;14.20;99.90
30250;DHT22;17064;47.974;13.826;2023-07-28T03:56:03;14.20;99.90
30250;DHT22;17064;47.974;13.826;2023-07-28T04:01:04;14.30;99.90
30250;DHT22;17064;47.974;13.826;2023-07-28T04:06:11;14.40;99.90
30250;DHT22;17064;47.974;13.826;2023-07-28T04:11:12;14.60;99.90
30250;DHT22;17064;47.974;13.826;2023-07-28T04:16:13;14.70;99.90
30250;DHT22;17064;47.974;13.826;2023-07-28T04:21:13;14.80;99.90
30250;DHT22;17064;47.974;13.826;2023-07-28T04:26:14;15.00;99.90
30250;DHT22;17064;47.974;13.826;2023-07-28T04:31:15;15.10;99.90
30250;DHT22;17064;47.974;13.826;2023-07-28T04:36:15;15.30;99.90
30250;DHT22;17064;47.974;13.826;2023-07-28T04:41:16;15.40;99.90
30250;DHT22;17064;47.974;13.826;2023-07-28T04:46:17;15.50;99.90
30250;DHT22;17064;47.974;13.826;2023-07-28T04:51:17;15.70;99.90
30250;DHT22;17064;47.974;13.826;2023-07-28T04:56:18;15.80;99.90
30250;DHT22;17064;47.974;13.826;2023-07-28T05:01:19;15.90;99.90
30250;DHT22;17064;47.974;13.826;2023-07-28T05:06:19;16.00;99.90
30250;DHT22;17064;47.974;13.826;2023-07-28T05:11:20;16.30;99.90
30250;DHT22;17064;47.974;13.826;2023-07-28T05:16:21;16.50;99.90
30250;DHT22;17064;47.974;13.826;2023-07-28T05:21:21;16.70;99.90
30250;DHT22;17064;47.974;13.826;2023-07-28T05:26:22;17.00;99.90
30250;DHT22;17064;47.974;13.826;2023-07-28T05:31:23;17.10;99.90
30250;DHT22;17064;47.974;13.826;2023-07-28T05:36:24;17.20;99.90
30250;DHT22;17064;47.974;13.826;2023-07-28T05:41:26;17.50;99.90
30250;DHT22;17064;47.974;13.826;2023-07-28T05:46:26;17.70;99.90
30250;DHT22;17064;47.974;13.826;2023-07-28T05:51:27;17.60;99.90
30250;DHT22;17064;47.974;13.826;2023-07-28T05:56:28;17.70;99.90
30250;DHT22;17064;47.974;13.826;2023-07-28T06:01:29;18.00;99.90
30250;DHT22;17064;47.974;13.826;2023-07-28T06:06:30;18.30;99.90
30250;DHT22;17064;47.974;13.826;2023-07-28T06:11:30;18.60;99.90
30250;DHT22;17064;47.974;13.826;2023-07-28T06:16:31;18.50;99.90
30250;DHT22;17064;47.974;13.826;2023-07-28T06:21:32;18.30;99.90
30250;DHT22;17064;47.974;13.826;2023-07-28T06:26:32;18.30;99.90
30250;DHT22;17064;47.974;13.826;2023-07-28T06:31:33;18.60;99.90
30250;DHT22;17064;47.974;13.826;2023-07-28T06:36:34;18.70;99.90
30250;DHT22;17064;47.974;13.826;2023-07-28T06:41:34;18.60;99.90
30250;DHT22;17064;47.974;13.826;2023-07-28T06:46:35;18.60;99.90
30250;DHT22;17064;47.974;13.826;2023-07-28T06:51:36;18.90;99.90
30250;DHT22;17064;47.974;13.826;2023-07-28T06:56:36;18.90;99.90
30250;DHT22;17064;47.974;13.826;2023-07-28T07:01:37;18.80;99.90
30250;DHT22;17064;47.974;13.826;2023-07-28T07:06:38;18.70;99.90
30250;DHT22;17064;47.974;13.826;2023-07-28T07:11:38;18.70;99.90
30250;DHT22;17064;47.974;13.826;2023-07-28T07:16:39;18.60;99.90
30250;DHT22;17064;47.974;13.826;2023-07-28T07:21:40;18.40;99.90
30250;DHT22;17064;47.974;13.826;2023-07-28T07:26:41;18.10;99.90
30250;DHT22;17064;47.974;13.826;2023-07-28T07:31:41;18.00;99.90
30250;DHT22;17064;47.974;13.826;2023-07-28T07:36:42;17.80;99.90
30250;DHT22;17064;47.974;13.826;2023-07-28T07:41:43;17.70;99.90
30250;DHT22;17064;47.974;13.826;2023-07-28T07:46:43;17.70;99.90
30250;DHT22;17064;47.974;13.826;2023-07-28T07:51:44;17.80;99.90
30250;DHT22;17064;47.974;13.826;2023-07-28T07:56:45;17.80;99.90
30250;DHT22;17064;47.974;13.826;2023-07-28T08:01:47;17.90;99.90
30250;DHT22;17064;47.974;13.826;2023-07-28T08:06:47;17.90;99.90
30250;DHT22;17064;47.974;13.826;2023-07-28T08:11:48;17.90;99.90
30250;DHT22;17064;47.974;13.826;2023-07-28T08:16:50;17.90;99.90
30250;DHT22;17064;47.974;13.826;2023-07-28T08:21:51;18.00;99.90
30250;DHT22;17064;47.974;13.826;2023-07-28T08:26:51;18.10;99.90
30250;DHT22;17064;47.974;13.826;2023-07-28T08:31:52;18.20;99.90
30250;DHT22;17064;47.974;13.826;2023-07-28T08:36:53;18.30;99.90
30250;DHT22;17064;47.974;13.826;2023-07-28T08:42:01;18.40;99.90
30250;DHT22;17064;47.974;13.826;2023-07-28T08:47:03;18.80;99.90
30250;DHT22;17064;47.974;13.826;2023-07-28T08:52:07;19.30;99.90
30250;DHT22;17064;47.974;13.826;2023-07-28T08:57:09;20.10;99.90
30250;DHT22;17064;47.974;13.826;2023-07-28T09:02:10;21.00;99.90
30250;DHT22;17064;47.974;13.826;2023-07-28T09:07:11;21.80;99.90
30250;DHT22;17064;47.974;13.826;2023-07-28T09:12:12;22.40;99.90
30250;DHT22;17064;47.974;13.826;2023-07-28T09:17:12;22.90;99.90
30250;DHT22;17064;47.974;13.826;2023-07-28T09:22:14;23.30;99.90
30250;DHT22;17064;47.974;13.826;2023-07-28T09:27:25;23.70;99.90
30250;DHT22;17064;47.974;13.826;2023-07-28T09:32:31;24.10;99.90
30250;DHT22;17064;47.974;13.826;2023-07-28T09:37:38;24.30;99.90
30250;DHT22;17064;47.974;13.826;2023-07-28T09:42:41;24.20;99.90
30250;DHT22;17064;47.974;13.826;2023-07-28T09:47:45;24.10;99.90
30250;DHT22;17064;47.974;13.826;2023-07-28T09:52:47;24.20;99.90
30250;DHT22;17064;47.974;13.826;2023-07-28T09:57:54;24.40;99.90
30250;DHT22;17064;47.974;13.826;2023-07-28T10:02:56;24.70;99.90
30250;DHT22;17064;47.974;13.826;2023-07-28T10:07:58;24.90;99.90
30250;DHT22;17064;47.974;13.826;2023-07-28T10:12:59;25.20;99.90
30250;DHT22;17064;47.974;13.826;2023-07-28T10:18:00;25.40;99.90
30250;DHT22;17064;47.974;13.826;2023-07-28T10:23:12;25.70;99.90
30250;DHT22;17064;47.974;13.826;2023-07-28T10:28:29;25.90;99.90
30250;DHT22;17064;47.974;13.826;2023-07-28T10:33:41;26.20;99.70
30250;DHT22;17064;47.974;13.826;2023-07-28T10:38:44;26.20;93.60
30250;DHT22;17064;47.974;13.826;2023-07-28T10:43:46;26.10;95.50
30250;DHT22;17064;47.974;13.826;2023-07-28T10:48:48;26.40;95.00
30250;DHT22;17064;47.974;13.826;2023-07-28T10:53:55;26.30;92.10
30250;DHT22;17064;47.974;13.826;2023-07-28T10:59:00;26.20;93.40
30250;DHT22;17064;47.974;13.826;2023-07-28T11:09:10;26.30;91.20
30250;DHT22;17064;47.974;13.826;2023-07-28T11:14:11;26.00;88.30
30250;DHT22;17064;47.974;13.826;2023-07-28T11:19:12;25.80;90.70
30250;DHT22;17064;47.974;13.826;2023-07-28T11:24:19;25.90;90.30
30250;DHT22;17064;47.974;13.826;2023-07-28T11:29:20;26.00;89.00
30250;DHT22;17064;47.974;13.826;2023-07-28T11:34:21;26.10;90.50
30250;DHT22;17064;47.974;13.826;2023-07-28T11:39:22;26.00;89.60
30250;DHT22;17064;47.974;13.826;2023-07-28T11:44:24;25.90;90.80
30250;DHT22;17064;47.974;13.826;2023-07-28T11:49:25;25.50;91.00
30250;DHT22;17064;47.974;13.826;2023-07-28T11:54:26;25.10;90.90
30250;DHT22;17064;47.974;13.826;2023-07-28T11:59:28;24.60;92.10
30250;DHT22;17064;47.974;13.826;2023-07-28T12:04:35;24.30;92.90
30250;DHT22;17064;47.974;13.826;2023-07-28T12:09:48;24.10;93.20
30250;DHT22;17064;47.974;13.826;2023-07-28T12:14:50;24.10;92.90
30250;DHT22;17064;47.974;13.826;2023-07-28T12:20:05;23.90;95.00
30250;DHT22;17064;47.974;13.826;2023-07-28T12:25:14;23.80;95.20
30250;DHT22;17064;47.974;13.826;2023-07-28T12:30:15;23.70;95.80
30250;DHT22;17064;47.974;13.826;2023-07-28T12:35:16;23.50;95.80
30250;DHT22;17064;47.974;13.826;2023-07-28T12:40:17;23.40;95.90
30250;DHT22;17064;47.974;13.826;2023-07-28T12:45:19;23.20;96.00
30250;DHT22;17064;47.974;13.826;2023-07-28T12:50:23;23.00;96.70
30250;DHT22;17064;47.974;13.826;2023-07-28T12:55:24;23.00;97.50
30250;DHT22;17064;47.974;13.826;2023-07-28T13:00:27;23.00;98.60
30250;DHT22;17064;47.974;13.826;2023-07-28T13:05:28;23.00;99.10
30250;DHT22;17064;47.974;13.826;2023-07-28T13:10:29;23.10;98.80
30250;DHT22;17064;47.974;13.826;2023-07-28T13:15:29;23.10;98.60
30250;DHT22;17064;47.974;13.826;2023-07-28T13:20:30;23.10;98.60
30250;DHT22;17064;47.974;13.826;2023-07-28T13:25:31;23.00;99.20
30250;DHT22;17064;47.974;13.826;2023-07-28T13:30:31;23.00;98.80
30250;DHT22;17064;47.974;13.826;2023-07-28T13:35:32;23.00;98.10
30250;DHT22;17064;47.974;13.826;2023-07-28T13:40:34;23.00;98.00
30250;DHT22;17064;47.974;13.826;2023-07-28T13:45:35;23.10;97.10
30250;DHT22;17064;47.974;13.826;2023-07-28T13:50:35;23.20;96.50
30250;DHT22;17064;47.974;13.826;2023-07-28T13:55:36;23.40;96.60
30250;DHT22;17064;47.974;13.826;2023-07-28T14:00:37;23.40;95.70
30250;DHT22;17064;47.974;13.826;2023-07-28T14:05:37;23.40;95.90
30250;DHT22;17064;47.974;13.826;2023-07-28T14:10:38;23.40;96.30
30250;DHT22;17064;47.974;13.826;2023-07-28T14:15:39;23.30;95.50
30250;DHT22;17064;47.974;13.826;2023-07-28T14:20:40;23.30;95.60
30250;DHT22;17064;47.974;13.826;2023-07-28T14:25:41;23.30;96.00
30250;DHT22;17064;47.974;13.826;2023-07-28T14:30:41;23.30;95.10
30250;DHT22;17064;47.974;13.826;2023-07-28T14:35:48;23.40;94.50
30250;DHT22;17064;47.974;13.826;2023-07-28T14:40:49;23.40;94.40
30250;DHT22;17064;47.974;13.826;2023-07-28T14:45:52;23.60;93.90
30250;DHT22;17064;47.974;13.826;2023-07-28T14:50:53;23.60;93.50
30250;DHT22;17064;47.974;13.826;2023-07-28T14:55:53;23.80;94.60
30250;DHT22;17064;47.974;13.826;2023-07-28T15:00:54;23.90;93.60
30250;DHT22;17064;47.974;13.826;2023-07-28T15:05:55;24.00;95.50
30250;DHT22;17064;47.974;13.826;2023-07-28T15:10:56;23.80;97.80
30250;DHT22;17064;47.974;13.826;2023-07-28T15:15:57;23.50;98.70
30250;DHT22;17064;47.974;13.826;2023-07-28T15:20:58;23.40;99.90
30250;DHT22;17064;47.974;13.826;2023-07-28T15:26:00;23.20;99.90
30250;DHT22;17064;47.974;13.826;2023-07-28T15:31:01;23.20;99.90
30250;DHT22;17064;47.974;13.826;2023-07-28T15:36:02;23.00;99.90
30250;DHT22;17064;47.974;13.826;2023-07-28T15:41:03;23.00;99.90
30250;DHT22;17064;47.974;13.826;2023-07-28T15:46:03;23.00;99.90
30250;DHT22;17064;47.974;13.826;2023-07-28T15:51:05;23.00;99.90
30250;DHT22;17064;47.974;13.826;2023-07-28T15:56:05;22.90;99.90
30250;DHT22;17064;47.974;13.826;2023-07-28T16:01:06;22.90;99.90
30250;DHT22;17064;47.974;13.826;2023-07-28T16:06:07;22.80;99.90
30250;DHT22;17064;47.974;13.826;2023-07-28T16:11:08;22.70;99.90
30250;DHT22;17064;47.974;13.826;2023-07-28T16:16:08;22.60;99.90
30250;DHT22;17064;47.974;13.826;2023-07-28T16:21:11;22.60;99.90
30250;DHT22;17064;47.974;13.826;2023-07-28T16:26:11;22.60;99.90
30250;DHT22;17064;47.974;13.826;2023-07-28T16:31:13;22.50;99.90
30250;DHT22;17064;47.974;13.826;2023-07-28T16:36:13;22.50;99.90
30250;DHT22;17064;47.974;13.826;2023-07-28T16:41:14;22.60;99.90
30250;DHT22;17064;47.974;13.826;2023-07-28T16:46:15;22.60;99.90
30250;DHT22;17064;47.974;13.826;2023-07-28T16:51:16;22.60;99.90
30250;DHT22;17064;47.974;13.826;2023-07-28T16:56:16;22.50;99.90
30250;DHT22;17064;47.974;13.826;2023-07-28T17:01:17;22.40;99.90
30250;DHT22;17064;47.974;13.826;2023-07-28T17:06:19;22.40;99.90
30250;DHT22;17064;47.974;13.826;2023-07-28T17:11:20;22.40;99.90
30250;DHT22;17064;47.974;13.826;2023-07-28T17:16:22;22.30;99.90
30250;DHT22;17064;47.974;13.826;2023-07-28T17:21:23;22.20;99.90
30250;DHT22;17064;47.974;13.826;2023-07-28T17:26:24;22.10;99.90
30250;DHT22;17064;47.974;13.826;2023-07-28T17:31:25;22.10;99.90
30250;DHT22;17064;47.974;13.826;2023-07-28T17:36:25;22.00;99.90
30250;DHT22;17064;47.974;13.826;2023-07-28T17:41:26;21.90;99.90
30250;DHT22;17064;47.974;13.826;2023-07-28T17:46:27;21.80;99.90
30250;DHT22;17064;47.974;13.826;2023-07-28T17:51:28;21.70;99.90
30250;DHT22;17064;47.974;13.826;2023-07-28T17:56:28;21.60;99.90
30250;DHT22;17064;47.974;13.826;2023-07-28T18:01:29;21.50;99.90
30250;DHT22;17064;47.974;13.826;2023-07-28T18:06:30;21.40;99.90
30250;DHT22;17064;47.974;13.826;2023-07-28T18:11:31;21.20;99.90
30250;DHT22;17064;47.974;13.826;2023-07-28T18:16:33;21.00;99.90
30250;DHT22;17064;47.974;13.826;2023-07-28T18:21:34;20.90;99.90
30250;DHT22;17064;47.974;13.826;2023-07-28T18:26:35;20.70;99.90
30250;DHT22;17064;47.974;13.826;2023-07-28T18:31:36;20.60;99.90
30250;DHT22;17064;47.974;13.826;2023-07-28T18:36:37;20.40;99.90
30250;DHT22;17064;47.974;13.826;2023-07-28T18:41:38;20.30;99.90
30250;DHT22;17064;47.974;13.826;2023-07-28T18:46:39;20.10;99.90
30250;DHT22;17064;47.974;13.826;2023-07-28T18:51:40;20.00;99.90
30250;DHT22;17064;47.974;13.826;2023-07-28T18:56:40;19.80;99.90
30250;DHT22;17064;47.974;13.826;2023-07-28T19:01:43;19.60;99.90
30250;DHT22;17064;47.974;13.826;2023-07-28T19:06:44;19.40;99.90
30250;DHT22;17064;47.974;13.826;2023-07-28T19:11:44;19.30;99.90
30250;DHT22;17064;47.974;13.826;2023-07-28T19:16:45;19.20;99.90
30250;DHT22;17064;47.974;13.826;2023-07-28T19:21:47;19.10;99.90
30250;DHT22;17064;47.974;13.826;2023-07-28T19:26:49;19.00;99.90
30250;DHT22;17064;47.974;13.826;2023-07-28T19:31:50;19.00;99.90
30250;DHT22;17064;47.974;13.826;2023-07-28T19:36:51;18.90;99.90
30250;DHT22;17064;47.974;13.826;2023-07-28T19:41:52;18.80;99.90
30250;DHT22;17064;47.974;13.826;2023-07-28T19:46:53;18.70;99.90
30250;DHT22;17064;47.974;13.826;2023-07-28T19:51:54;18.60;99.90
30250;DHT22;17064;47.974;13.826;2023-07-28T19:56:55;18.50;99.90
30250;DHT22;17064;47.974;13.826;2023-07-28T20:01:56;18.50;99.90
30250;DHT22;17064;47.974;13.826;2023-07-28T20:06:57;18.40;99.90
30250;DHT22;17064;47.974;13.826;2023-07-28T20:11:58;18.30;99.90
30250;DHT22;17064;47.974;13.826;2023-07-28T20:16:59;18.30;99.90
30250;DHT22;17064;47.974;13.826;2023-07-28T20:22:01;18.20;99.90
30250;DHT22;17064;47.974;13.826;2023-07-28T20:27:02;18.10;99.90
30250;DHT22;17064;47.974;13.826;2023-07-28T20:32:03;18.10;99.90
30250;DHT22;17064;47.974;13.826;2023-07-28T20:37:05;18.00;99.90
30250;DHT22;17064;47.974;13.826;2023-07-28T20:42:06;18.00;99.90
30250;DHT22;17064;47.974;13.826;2023-07-28T20:47:07;18.00;99.90
30250;DHT22;17064;47.974;13.826;2023-07-28T20:52:08;18.10;99.90
30250;DHT22;17064;47.974;13.826;2023-07-28T20:57:09;18.00;99.90
30250;DHT22;17064;47.974;13.826;2023-07-28T21:02:10;18.10;99.90
30250;DHT22;17064;47.974;13.826;2023-07-28T21:07:13;18.10;99.90
30250;DHT22;17064;47.974;13.826;2023-07-28T21:12:13;18.10;99.90
30250;DHT22;17064;47.974;13.826;2023-07-28T21:17:15;18.10;99.90
30250;DHT22;17064;47.974;13.826;2023-07-28T21:22:15;18.10;99.90
30250;DHT22;17064;47.974;13.826;2023-07-28T21:27:17;18.00;99.90
30250;DHT22;17064;47.974;13.826;2023-07-28T21:32:17;17.80;99.90
30250;DHT22;17064;47.974;13.826;2023-07-28T21:37:18;17.60;99.90
30250;DHT22;17064;47.974;13.826;2023-07-28T21:42:19;17.30;99.90
30250;DHT22;17064;47.974;13.826;2023-07-28T21:47:19;17.00;99.90
30250;DHT22;17064;47.974;13.826;2023-07-28T21:52:20;16.80;99.90
30250;DHT22;17064;47.974;13.826;2023-07-28T21:57:21;16.60;99.90
30250;DHT22;17064;47.974;13.826;2023-07-28T22:02:21;16.50;99.90
30250;DHT22;17064;47.974;13.826;2023-07-28T22:07:22;16.40;99.90
30250;DHT22;17064;47.974;13.826;2023-07-28T22:12:23;16.40;99.90
30250;DHT22;17064;47.974;13.826;2023-07-28T22:17:23;16.40;99.90
30250;DHT22;17064;47.974;13.826;2023-07-28T22:22:24;16.40;99.90
30250;DHT22;17064;47.974;13.826;2023-07-28T22:27:25;16.40;99.90
30250;DHT22;17064;47.974;13.826;2023-07-28T22:32:25;16.40;99.90
30250;DHT22;17064;47.974;13.826;2023-07-28T22:37:26;16.40;99.90
30250;DHT22;17064;47.974;13.826;2023-07-28T22:42:28;16.50;99.90
30250;DHT22;17064;47.974;13.826;2023-07-28T22:47:28;16.50;99.90
30250;DHT22;17064;47.974;13.826;2023-07-28T22:52:29;16.60;99.90
30250;DHT22;17064;47.974;13.826;2023-07-28T22:57:30;16.60;99.90
30250;DHT22;17064;47.974;13.826;2023-07-28T23:02:31;16.60;99.90
30250;DHT22;17064;47.974;13.826;2023-07-28T23:07:31;16.60;99.90
30250;DHT22;17064;47.974;13.826;2023-07-28T23:12:32;16.60;99.90
30250;DHT22;17064;47.974;13.826;2023-07-28T23:17:33;16.70;99.90
30250;DHT22;17064;47.974;13.826;2023-07-28T23:22:33;16.70;99.90
30250;DHT22;17064;47.974;13.826;2023-07-28T23:27:34;16.70;99.90
30250;DHT22;17064;47.974;13.826;2023-07-28T23:32:35;16.70;99.90
30250;DHT22;17064;47.974;13.826;2023-07-28T23:37:36;16.70;99.90
30250;DHT22;17064;47.974;13.826;2023-07-28T23:42:36;16.60;99.90
30250;DHT22;17064;47.974;13.826;2023-07-28T23:47:37;16.60;99.90
30250;DHT22;17064;47.974;13.826;2023-07-28T23:52:38;16.50;99.90
30250;DHT22;17064;47.974;13.826;2023-07-28T23:57:38;16.50;99.90
